sensor_id;sensor_type;location;lat;lon;timestamp;temperature;humidity
22526;DHT22;11429;50.842;4.386;2023-10-08T00:00:45;17.60;99.90
22526;DHT22;11429;50.842;4.386;2023-10-08T00:03:15;17.60;99.90
22526;DHT22;11429;50.842;4.386;2023-10-08T00:05:46;17.50;99.90
22526;DHT22;11429;50.842;4.386;2023-10-08T00:08:12;17.40;99.90
22526;DHT22;11429;50.842;4.386;2023-10-08T00:10:40;17.40;99.90
22526;DHT22;11429;50.842;4.386;2023-10-08T00:13:13;17.40;99.90
22526;DHT22;11429;50.842;4.386;2023-10-08T00:15:42;17.40;99.90
22526;DHT22;11429;50.842;4.386;2023-10-08T00:18:19;17.40;99.90
22526;DHT22;11429;50.842;4.386;2023-10-08T00:20:45;17.40;99.90
22526;DHT22;11429;50.842;4.386;2023-10-08T00:23:20;17.40;99.90
22526;DHT22;11429;50.842;4.386;2023-10-08T00:25:46;17.50;99.90
22526;DHT22;11429;50.842;4.386;2023-10-08T00:28:13;17.50;99.90
22526;DHT22;11429;50.842;4.386;2023-10-08T00:30:41;17.50;99.90
22526;DHT22;11429;50.842;4.386;2023-10-08T00:33:08;17.40;99.90
22526;DHT22;11429;50.842;4.386;2023-10-08T00:35:41;17.50;99.90
22526;DHT22;11429;50.842;4.386;2023-10-08T00:38:11;17.60;99.90
22526;DHT22;11429;50.842;4.386;2023-10-08T00:40:46;17.70;99.90
22526;DHT22;11429;50.842;4.386;2023-10-08T00:45:57;17.40;99.90
22526;DHT22;11429;50.842;4.386;2023-10-08T00:48:28;17.30;99.90
22526;DHT22;11429;50.842;4.386;2023-10-08T00:51:01;17.20;99.90
22526;DHT22;11429;50.842;4.386;2023-10-08T00:53:41;17.20;99.90
22526;DHT22;11429;50.842;4.386;2023-10-08T00:56:09;17.10;99.90
22526;DHT22;11429;50.842;4.386;2023-10-08T00:58:44;17.10;99.90
22526;DHT22;11429;50.842;4.386;2023-10-08T01:01:17;17.10;99.90
22526;DHT22;11429;50.842;4.386;2023-10-08T01:03:46;17.00;99.90
22526;DHT22;11429;50.842;4.386;2023-10-08T01:06:16;17.10;99.90
22526;DHT22;11429;50.842;4.386;2023-10-08T01:08:46;17.00;99.90
22526;DHT22;11429;50.842;4.386;2023-10-08T01:11:24;16.90;99.90
22526;DHT22;11429;50.842;4.386;2023-10-08T01:14:19;16.90;99.90
22526;DHT22;11429;50.842;4.386;2023-10-08T01:16:47;16.80;99.90
22526;DHT22;11429;50.842;4.386;2023-10-08T01:19:19;16.90;99.90
22526;DHT22;11429;50.842;4.386;2023-10-08T01:21:45;16.90;99.90
22526;DHT22;11429;50.842;4.386;2023-10-08T01:24:13;16.90;99.90
22526;DHT22;11429;50.842;4.386;2023-10-08T01:26:43;16.80;99.90
22526;DHT22;11429;50.842;4.386;2023-10-08T01:29:11;16.90;99.90
22526;DHT22;11429;50.842;4.386;2023-10-08T01:31:45;16.90;99.90
22526;DHT22;11429;50.842;4.386;2023-10-08T01:34:12;16.90;99.90
22526;DHT22;11429;50.842;4.386;2023-10-08T01:36:43;16.80;99.90
22526;DHT22;11429;50.842;4.386;2023-10-08T01:39:11;16.70;99.90
22526;DHT22;11429;50.842;4.386;2023-10-08T01:41:43;16.60;99.90
22526;DHT22;11429;50.842;4.386;2023-10-08T01:44:09;16.60;99.90
22526;DHT22;11429;50.842;4.386;2023-10-08T01:46:35;16.70;99.90
22526;DHT22;11429;50.842;4.386;2023-10-08T01:49:02;16.70;99.90
22526;DHT22;11429;50.842;4.386;2023-10-08T01:51:38;16.60;99.90
22526;DHT22;11429;50.842;4.386;2023-10-08T01:54:07;16.60;99.90
22526;DHT22;11429;50.842;4.386;2023-10-08T01:56:41;16.60;99.90
22526;DHT22;11429;50.842;4.386;2023-10-08T01:59:08;16.60;99.90
22526;DHT22;11429;50.842;4.386;2023-10-08T02:01:35;16.60;99.90
22526;DHT22;11429;50.842;4.386;2023-10-08T02:04:01;16.60;99.90
22526;DHT22;11429;50.842;4.386;2023-10-08T02:06:27;16.50;99.90
22526;DHT22;11429;50.842;4.386;2023-10-08T02:08:53;16.60;99.90
22526;DHT22;11429;50.842;4.386;2023-10-08T02:11:19;16.70;99.90
22526;DHT22;11429;50.842;4.386;2023-10-08T02:13:45;16.50;99.90
22526;DHT22;11429;50.842;4.386;2023-10-08T02:16:18;16.70;99.90
22526;DHT22;11429;50.842;4.386;2023-10-08T02:18:44;17.00;99.90
22526;DHT22;11429;50.842;4.386;2023-10-08T02:21:09;16.70;99.90
22526;DHT22;11429;50.842;4.386;2023-10-08T02:23:36;16.60;99.90
22526;DHT22;11429;50.842;4.386;2023-10-08T02:26:02;16.70;99.90
22526;DHT22;11429;50.842;4.386;2023-10-08T02:28:28;16.50;99.90
22526;DHT22;11429;50.842;4.386;2023-10-08T02:30:54;16.60;99.90
22526;DHT22;11429;50.842;4.386;2023-10-08T02:33:20;16.60;99.90
22526;DHT22;11429;50.842;4.386;2023-10-08T02:35:46;16.40;99.90
22526;DHT22;11429;50.842;4.386;2023-10-08T02:38:14;16.40;99.90
22526;DHT22;11429;50.842;4.386;2023-10-08T02:40:42;16.40;99.90
22526;DHT22;11429;50.842;4.386;2023-10-08T02:43:12;16.50;99.90
22526;DHT22;11429;50.842;4.386;2023-10-08T02:45:41;16.80;99.90
22526;DHT22;11429;50.842;4.386;2023-10-08T02:48:10;16.60;99.90
22526;DHT22;11429;50.842;4.386;2023-10-08T02:50:44;16.50;99.90
22526;DHT22;11429;50.842;4.386;2023-10-08T02:53:13;16.60;99.90
22526;DHT22;11429;50.842;4.386;2023-10-08T02:55:45;16.40;99.90
22526;DHT22;11429;50.842;4.386;2023-10-08T02:58:12;16.30;99.90
22526;DHT22;11429;50.842;4.386;2023-10-08T03:00:44;16.40;99.90
22526;DHT22;11429;50.842;4.386;2023-10-08T03:03:15;16.40;99.90
22526;DHT22;11429;50.842;4.386;2023-10-08T03:06:07;16.30;99.90
22526;DHT22;11429;50.842;4.386;2023-10-08T03:08:40;16.60;99.90
22526;DHT22;11429;50.842;4.386;2023-10-08T03:11:10;16.80;99.90
22526;DHT22;11429;50.842;4.386;2023-10-08T03:13:43;16.60;99.90
22526;DHT22;11429;50.842;4.386;2023-10-08T03:16:13;16.60;99.90
22526;DHT22;11429;50.842;4.386;2023-10-08T03:18:39;16.50;99.90
22526;DHT22;11429;50.842;4.386;2023-10-08T03:21:11;16.30;99.90
22526;DHT22;11429;50.842;4.386;2023-10-08T03:23:49;16.30;99.90
22526;DHT22;11429;50.842;4.386;2023-10-08T03:26:22;16.40;99.90
22526;DHT22;11429;50.842;4.386;2023-10-08T03:28:56;16.50;99.90
22526;DHT22;11429;50.842;4.386;2023-10-08T03:31:25;16.30;99.90
22526;DHT22;11429;50.842;4.386;2023-10-08T03:34:10;16.50;99.90
22526;DHT22;11429;50.842;4.386;2023-10-08T03:36:39;16.40;99.90
22526;DHT22;11429;50.842;4.386;2023-10-08T03:39:18;16.30;99.90
22526;DHT22;11429;50.842;4.386;2023-10-08T03:41:45;16.60;99.90
22526;DHT22;11429;50.842;4.386;2023-10-08T03:44:24;16.70;99.90
22526;DHT22;11429;50.842;4.386;2023-10-08T03:46:50;16.70;99.90
22526;DHT22;11429;50.842;4.386;2023-10-08T03:49:18;16.90;99.90
22526;DHT22;11429;50.842;4.386;2023-10-08T03:51:47;16.70;99.90
22526;DHT22;11429;50.842;4.386;2023-10-08T03:54:14;16.40;99.90
22526;DHT22;11429;50.842;4.386;2023-10-08T03:56:40;16.40;99.90
22526;DHT22;11429;50.842;4.386;2023-10-08T03:59:13;16.20;99.90
22526;DHT22;11429;50.842;4.386;2023-10-08T04:01:41;16.10;99.90
22526;DHT22;11429;50.842;4.386;2023-10-08T04:04:07;16.20;99.90
22526;DHT22;11429;50.842;4.386;2023-10-08T04:06:38;16.20;99.90
22526;DHT22;11429;50.842;4.386;2023-10-08T04:09:05;16.00;99.90
22526;DHT22;11429;50.842;4.386;2023-10-08T04:11:34;16.10;99.90
22526;DHT22;11429;50.842;4.386;2023-10-08T04:14:24;16.00;99.90
22526;DHT22;11429;50.842;4.386;2023-10-08T04:16:51;15.80;99.90
22526;DHT22;11429;50.842;4.386;2023-10-08T04:19:23;15.90;99.90
22526;DHT22;11429;50.842;4.386;2023-10-08T04:21:55;15.80;99.90
22526;DHT22;11429;50.842;4.386;2023-10-08T04:24:26;15.70;99.90
22526;DHT22;11429;50.842;4.386;2023-10-08T04:27:01;15.90;99.90
22526;DHT22;11429;50.842;4.386;2023-10-08T04:29:34;15.70;99.90
22526;DHT22;11429;50.842;4.386;2023-10-08T04:32:02;15.60;99.90
22526;DHT22;11429;50.842;4.386;2023-10-08T04:34:34;15.80;99.90
22526;DHT22;11429;50.842;4.386;2023-10-08T04:36:59;15.80;99.90
22526;DHT22;11429;50.842;4.386;2023-10-08T04:39:39;15.50;99.90
22526;DHT22;11429;50.842;4.386;2023-10-08T04:42:06;15.80;99.90
22526;DHT22;11429;50.842;4.386;2023-10-08T04:44:51;15.80;99.90
22526;DHT22;11429;50.842;4.386;2023-10-08T04:47:17;15.70;99.90
22526;DHT22;11429;50.842;4.386;2023-10-08T04:49:59;15.70;99.90
22526;DHT22;11429;50.842;4.386;2023-10-08T04:52:25;15.60;99.90
22526;DHT22;11429;50.842;4.386;2023-10-08T04:54:53;15.70;99.90
22526;DHT22;11429;50.842;4.386;2023-10-08T04:57:20;15.80;99.90
22526;DHT22;11429;50.842;4.386;2023-10-08T04:59:51;15.80;99.90
22526;DHT22;11429;50.842;4.386;2023-10-08T05:02:17;15.90;99.90
22526;DHT22;11429;50.842;4.386;2023-10-08T05:04:50;15.90;99.90
22526;DHT22;11429;50.842;4.386;2023-10-08T05:07:25;15.90;99.90
22526;DHT22;11429;50.842;4.386;2023-10-08T05:10:09;15.70;99.90
22526;DHT22;11429;50.842;4.386;2023-10-08T05:12:36;15.80;99.90
22526;DHT22;11429;50.842;4.386;2023-10-08T05:15:37;15.70;99.90
22526;DHT22;11429;50.842;4.386;2023-10-08T05:18:28;15.60;99.90
22526;DHT22;11429;50.842;4.386;2023-10-08T05:21:13;15.40;99.90
22526;DHT22;11429;50.842;4.386;2023-10-08T05:23:51;15.30;99.90
22526;DHT22;11429;50.842;4.386;2023-10-08T05:26:37;15.30;99.90
22526;DHT22;11429;50.842;4.386;2023-10-08T05:29:08;15.60;99.90
22526;DHT22;11429;50.842;4.386;2023-10-08T05:31:53;15.50;99.90
22526;DHT22;11429;50.842;4.386;2023-10-08T05:34:39;15.40;99.90
22526;DHT22;11429;50.842;4.386;2023-10-08T05:37:17;15.40;99.90
22526;DHT22;11429;50.842;4.386;2023-10-08T05:39:58;15.40;99.90
22526;DHT22;11429;50.842;4.386;2023-10-08T05:42:38;15.50;99.90
22526;DHT22;11429;50.842;4.386;2023-10-08T05:45:12;15.50;99.90
22526;DHT22;11429;50.842;4.386;2023-10-08T05:47:37;15.50;99.90
22526;DHT22;11429;50.842;4.386;2023-10-08T05:50:04;15.40;99.90
22526;DHT22;11429;50.842;4.386;2023-10-08T05:52:46;15.50;99.90
22526;DHT22;11429;50.842;4.386;2023-10-08T05:55:31;15.60;99.90
22526;DHT22;11429;50.842;4.386;2023-10-08T05:58:05;15.50;99.90
22526;DHT22;11429;50.842;4.386;2023-10-08T06:00:47;15.60;99.90
22526;DHT22;11429;50.842;4.386;2023-10-08T06:03:19;15.70;99.90
22526;DHT22;11429;50.842;4.386;2023-10-08T06:06:01;15.90;99.90
22526;DHT22;11429;50.842;4.386;2023-10-08T06:08:41;15.80;99.90
22526;DHT22;11429;50.842;4.386;2023-10-08T06:11:25;15.70;99.90
22526;DHT22;11429;50.842;4.386;2023-10-08T06:14:09;15.40;99.90
22526;DHT22;11429;50.842;4.386;2023-10-08T06:17:04;15.50;99.90
22526;DHT22;11429;50.842;4.386;2023-10-08T06:19:49;15.70;99.90
22526;DHT22;11429;50.842;4.386;2023-10-08T06:22:16;15.90;99.90
22526;DHT22;11429;50.842;4.386;2023-10-08T06:24:42;16.00;99.90
22526;DHT22;11429;50.842;4.386;2023-10-08T06:27:07;16.00;99.90
22526;DHT22;11429;50.842;4.386;2023-10-08T06:29:34;16.20;99.90
22526;DHT22;11429;50.842;4.386;2023-10-08T06:31:59;16.30;99.90
22526;DHT22;11429;50.842;4.386;2023-10-08T06:34:28;16.50;99.90
22526;DHT22;11429;50.842;4.386;2023-10-08T06:36:57;16.60;99.90
22526;DHT22;11429;50.842;4.386;2023-10-08T06:39:24;16.40;99.90
22526;DHT22;11429;50.842;4.386;2023-10-08T06:41:54;16.20;99.90
22526;DHT22;11429;50.842;4.386;2023-10-08T06:44:22;16.30;99.90
22526;DHT22;11429;50.842;4.386;2023-10-08T06:46:49;16.50;99.90
22526;DHT22;11429;50.842;4.386;2023-10-08T06:49:18;16.70;99.90
22526;DHT22;11429;50.842;4.386;2023-10-08T06:51:44;16.50;99.90
22526;DHT22;11429;50.842;4.386;2023-10-08T06:54:10;16.30;99.90
22526;DHT22;11429;50.842;4.386;2023-10-08T06:56:39;16.30;99.90
22526;DHT22;11429;50.842;4.386;2023-10-08T06:59:08;16.40;99.90
22526;DHT22;11429;50.842;4.386;2023-10-08T07:01:35;16.40;99.90
22526;DHT22;11429;50.842;4.386;2023-10-08T07:04:11;16.30;99.90
22526;DHT22;11429;50.842;4.386;2023-10-08T07:06:38;16.20;99.90
22526;DHT22;11429;50.842;4.386;2023-10-08T07:09:06;16.40;99.90
22526;DHT22;11429;50.842;4.386;2023-10-08T07:11:33;16.30;99.90
22526;DHT22;11429;50.842;4.386;2023-10-08T07:14:04;16.40;99.90
22526;DHT22;11429;50.842;4.386;2023-10-08T07:16:32;16.50;99.90
22526;DHT22;11429;50.842;4.386;2023-10-08T07:18:58;16.80;99.90
22526;DHT22;11429;50.842;4.386;2023-10-08T07:21:41;17.10;99.90
22526;DHT22;11429;50.842;4.386;2023-10-08T07:24:14;17.30;99.90
22526;DHT22;11429;50.842;4.386;2023-10-08T07:26:47;17.60;99.90
22526;DHT22;11429;50.842;4.386;2023-10-08T07:29:14;17.70;99.90
22526;DHT22;11429;50.842;4.386;2023-10-08T07:31:45;17.60;99.90
22526;DHT22;11429;50.842;4.386;2023-10-08T07:34:17;17.30;99.90
22526;DHT22;11429;50.842;4.386;2023-10-08T07:36:53;17.20;99.90
22526;DHT22;11429;50.842;4.386;2023-10-08T07:39:21;17.20;99.90
22526;DHT22;11429;50.842;4.386;2023-10-08T07:41:53;17.50;99.90
22526;DHT22;11429;50.842;4.386;2023-10-08T07:44:23;17.80;99.90
22526;DHT22;11429;50.842;4.386;2023-10-08T07:46:53;17.90;99.90
22526;DHT22;11429;50.842;4.386;2023-10-08T07:49:22;18.10;99.90
22526;DHT22;11429;50.842;4.386;2023-10-08T07:51:49;18.00;99.90
22526;DHT22;11429;50.842;4.386;2023-10-08T07:54:24;18.10;99.90
22526;DHT22;11429;50.842;4.386;2023-10-08T07:56:50;18.00;99.90
22526;DHT22;11429;50.842;4.386;2023-10-08T07:59:46;18.00;99.90
22526;DHT22;11429;50.842;4.386;2023-10-08T08:02:21;17.90;99.90
22526;DHT22;11429;50.842;4.386;2023-10-08T08:04:53;18.30;99.90
22526;DHT22;11429;50.842;4.386;2023-10-08T08:07:22;18.30;99.90
22526;DHT22;11429;50.842;4.386;2023-10-08T08:09:50;18.20;99.90
22526;DHT22;11429;50.842;4.386;2023-10-08T08:12:22;18.30;99.90
22526;DHT22;11429;50.842;4.386;2023-10-08T08:14:53;18.30;99.90
22526;DHT22;11429;50.842;4.386;2023-10-08T08:17:20;18.30;99.90
22526;DHT22;11429;50.842;4.386;2023-10-08T08:19:49;18.30;99.90
22526;DHT22;11429;50.842;4.386;2023-10-08T08:22:17;18.30;99.90
22526;DHT22;11429;50.842;4.386;2023-10-08T08:24:57;18.20;99.90
22526;DHT22;11429;50.842;4.386;2023-10-08T08:27:41;18.20;99.90
22526;DHT22;11429;50.842;4.386;2023-10-08T08:30:09;18.40;99.90
22526;DHT22;11429;50.842;4.386;2023-10-08T08:32:39;18.90;99.90
22526;DHT22;11429;50.842;4.386;2023-10-08T08:35:09;18.90;99.90
22526;DHT22;11429;50.842;4.386;2023-10-08T08:37:35;18.60;99.90
22526;DHT22;11429;50.842;4.386;2023-10-08T08:40:05;18.60;99.90
22526;DHT22;11429;50.842;4.386;2023-10-08T08:42:47;18.80;99.90
22526;DHT22;11429;50.842;4.386;2023-10-08T08:45:15;18.90;99.90
22526;DHT22;11429;50.842;4.386;2023-10-08T08:47:43;19.10;99.90
22526;DHT22;11429;50.842;4.386;2023-10-08T08:50:10;19.40;99.90
22526;DHT22;11429;50.842;4.386;2023-10-08T08:52:37;19.40;99.90
22526;DHT22;11429;50.842;4.386;2023-10-08T08:55:23;19.40;99.90
22526;DHT22;11429;50.842;4.386;2023-10-08T08:57:50;19.40;99.90
22526;DHT22;11429;50.842;4.386;2023-10-08T09:00:18;19.20;99.90
22526;DHT22;11429;50.842;4.386;2023-10-08T09:02:47;19.30;99.90
22526;DHT22;11429;50.842;4.386;2023-10-08T09:05:14;19.60;99.90
22526;DHT22;11429;50.842;4.386;2023-10-08T09:08:04;20.00;99.90
22526;DHT22;11429;50.842;4.386;2023-10-08T09:10:34;20.40;99.90
22526;DHT22;11429;50.842;4.386;2023-10-08T09:13:04;20.60;99.90
22526;DHT22;11429;50.842;4.386;2023-10-08T09:15:31;20.70;99.90
22526;DHT22;11429;50.842;4.386;2023-10-08T09:18:00;20.70;99.90
22526;DHT22;11429;50.842;4.386;2023-10-08T09:20:27;20.90;99.90
22526;DHT22;11429;50.842;4.386;2023-10-08T09:25:42;21.40;99.90
22526;DHT22;11429;50.842;4.386;2023-10-08T09:28:08;21.10;99.90
22526;DHT22;11429;50.842;4.386;2023-10-08T09:30:37;21.10;99.90
22526;DHT22;11429;50.842;4.386;2023-10-08T09:33:08;20.70;99.90
22526;DHT22;11429;50.842;4.386;2023-10-08T09:35:34;20.70;99.90
22526;DHT22;11429;50.842;4.386;2023-10-08T09:38:06;20.60;99.90
22526;DHT22;11429;50.842;4.386;2023-10-08T09:40:39;20.60;99.90
22526;DHT22;11429;50.842;4.386;2023-10-08T09:43:11;21.20;99.90
22526;DHT22;11429;50.842;4.386;2023-10-08T09:45:43;21.70;99.90
22526;DHT22;11429;50.842;4.386;2023-10-08T09:48:15;22.20;99.90
22526;DHT22;11429;50.842;4.386;2023-10-08T09:50:42;22.90;99.90
22526;DHT22;11429;50.842;4.386;2023-10-08T09:53:10;23.60;99.90
22526;DHT22;11429;50.842;4.386;2023-10-08T09:55:54;24.10;99.90
22526;DHT22;11429;50.842;4.386;2023-10-08T09:58:22;25.20;99.90
22526;DHT22;11429;50.842;4.386;2023-10-08T10:00:50;26.30;99.90
22526;DHT22;11429;50.842;4.386;2023-10-08T10:03:18;27.60;99.90
22526;DHT22;11429;50.842;4.386;2023-10-08T10:05:45;28.30;99.90
22526;DHT22;11429;50.842;4.386;2023-10-08T10:08:11;26.80;99.90
22526;DHT22;11429;50.842;4.386;2023-10-08T10:10:38;27.00;99.90
22526;DHT22;11429;50.842;4.386;2023-10-08T10:13:05;28.20;99.90
22526;DHT22;11429;50.842;4.386;2023-10-08T10:15:34;28.40;99.90
22526;DHT22;11429;50.842;4.386;2023-10-08T10:20:57;28.00;99.90
22526;DHT22;11429;50.842;4.386;2023-10-08T10:23:39;27.10;99.90
22526;DHT22;11429;50.842;4.386;2023-10-08T10:31:44;26.30;99.90
22526;DHT22;11429;50.842;4.386;2023-10-08T10:34:13;26.10;99.90
22526;DHT22;11429;50.842;4.386;2023-10-08T10:36:43;25.50;99.90
22526;DHT22;11429;50.842;4.386;2023-10-08T10:39:12;26.20;99.90
22526;DHT22;11429;50.842;4.386;2023-10-08T10:41:53;26.50;99.90
22526;DHT22;11429;50.842;4.386;2023-10-08T10:44:46;27.60;99.90
22526;DHT22;11429;50.842;4.386;2023-10-08T10:47:17;28.80;99.90
22526;DHT22;11429;50.842;4.386;2023-10-08T10:49:48;28.50;99.90
22526;DHT22;11429;50.842;4.386;2023-10-08T10:52:17;28.20;99.90
22526;DHT22;11429;50.842;4.386;2023-10-08T10:55:04;27.40;99.90
22526;DHT22;11429;50.842;4.386;2023-10-08T10:57:43;26.90;99.90
22526;DHT22;11429;50.842;4.386;2023-10-08T11:00:10;26.20;99.90
22526;DHT22;11429;50.842;4.386;2023-10-08T11:02:56;26.10;99.90
22526;DHT22;11429;50.842;4.386;2023-10-08T11:05:26;26.20;99.90
22526;DHT22;11429;50.842;4.386;2023-10-08T11:07:57;26.20;99.90
22526;DHT22;11429;50.842;4.386;2023-10-08T11:10:35;26.10;99.90
22526;DHT22;11429;50.842;4.386;2023-10-08T11:13:07;26.50;99.90
22526;DHT22;11429;50.842;4.386;2023-10-08T11:15:44;26.90;99.90
22526;DHT22;11429;50.842;4.386;2023-10-08T11:18:15;27.50;99.90
22526;DHT22;11429;50.842;4.386;2023-10-08T11:20:42;26.30;99.90
22526;DHT22;11429;50.842;4.386;2023-10-08T11:26:03;26.30;99.90
22526;DHT22;11429;50.842;4.386;2023-10-08T11:28:34;27.00;99.90
22526;DHT22;11429;50.842;4.386;2023-10-08T11:31:06;27.50;99.90
22526;DHT22;11429;50.842;4.386;2023-10-08T11:33:37;26.60;99.90
22526;DHT22;11429;50.842;4.386;2023-10-08T11:36:04;27.30;99.90
22526;DHT22;11429;50.842;4.386;2023-10-08T11:38:42;27.00;99.90
22526;DHT22;11429;50.842;4.386;2023-10-08T11:41:12;26.10;99.90
22526;DHT22;11429;50.842;4.386;2023-10-08T11:43:52;26.10;99.90
22526;DHT22;11429;50.842;4.386;2023-10-08T11:46:31;26.10;99.90
22526;DHT22;11429;50.842;4.386;2023-10-08T11:49:09;26.50;99.90
22526;DHT22;11429;50.842;4.386;2023-10-08T11:51:44;27.10;99.90
22526;DHT22;11429;50.842;4.386;2023-10-08T11:54:10;26.60;99.90
22526;DHT22;11429;50.842;4.386;2023-10-08T11:56:40;26.30;99.90
22526;DHT22;11429;50.842;4.386;2023-10-08T11:59:06;26.00;99.90
22526;DHT22;11429;50.842;4.386;2023-10-08T12:01:38;26.60;99.90
22526;DHT22;11429;50.842;4.386;2023-10-08T12:04:08;26.80;99.90
22526;DHT22;11429;50.842;4.386;2023-10-08T12:06:42;27.00;99.90
22526;DHT22;11429;50.842;4.386;2023-10-08T12:09:18;27.30;99.90
22526;DHT22;11429;50.842;4.386;2023-10-08T12:11:48;26.80;99.90
22526;DHT22;11429;50.842;4.386;2023-10-08T12:14:13;26.60;99.90
22526;DHT22;11429;50.842;4.386;2023-10-08T12:16:40;26.40;99.90
22526;DHT22;11429;50.842;4.386;2023-10-08T12:19:07;26.40;99.90
22526;DHT22;11429;50.842;4.386;2023-10-08T12:21:42;25.90;99.90
22526;DHT22;11429;50.842;4.386;2023-10-08T12:24:11;25.50;99.90
22526;DHT22;11429;50.842;4.386;2023-10-08T12:26:41;25.80;99.90
22526;DHT22;11429;50.842;4.386;2023-10-08T12:29:13;26.10;99.90
22526;DHT22;11429;50.842;4.386;2023-10-08T12:31:45;26.10;99.90
22526;DHT22;11429;50.842;4.386;2023-10-08T12:34:13;26.00;99.90
22526;DHT22;11429;50.842;4.386;2023-10-08T12:36:39;25.70;99.90
22526;DHT22;11429;50.842;4.386;2023-10-08T12:39:05;25.70;99.90
22526;DHT22;11429;50.842;4.386;2023-10-08T12:41:36;25.90;99.90
22526;DHT22;11429;50.842;4.386;2023-10-08T12:44:05;25.80;99.90
22526;DHT22;11429;50.842;4.386;2023-10-08T12:46:33;25.90;99.90
22526;DHT22;11429;50.842;4.386;2023-10-08T12:49:00;25.70;99.90
22526;DHT22;11429;50.842;4.386;2023-10-08T12:51:27;25.30;99.90
22526;DHT22;11429;50.842;4.386;2023-10-08T12:53:57;25.60;99.90
22526;DHT22;11429;50.842;4.386;2023-10-08T12:56:30;25.30;99.90
22526;DHT22;11429;50.842;4.386;2023-10-08T12:59:05;24.90;99.90
22526;DHT22;11429;50.842;4.386;2023-10-08T13:01:36;25.20;99.90
22526;DHT22;11429;50.842;4.386;2023-10-08T13:04:06;25.10;99.90
22526;DHT22;11429;50.842;4.386;2023-10-08T13:06:41;25.10;99.90
22526;DHT22;11429;50.842;4.386;2023-10-08T13:09:10;25.20;99.90
22526;DHT22;11429;50.842;4.386;2023-10-08T13:11:38;24.80;99.90
22526;DHT22;11429;50.842;4.386;2023-10-08T13:14:04;25.00;99.90
22526;DHT22;11429;50.842;4.386;2023-10-08T13:16:30;25.10;99.90
22526;DHT22;11429;50.842;4.386;2023-10-08T13:18:58;25.20;99.90
22526;DHT22;11429;50.842;4.386;2023-10-08T13:21:25;25.40;99.90
22526;DHT22;11429;50.842;4.386;2023-10-08T13:23:52;25.30;99.90
22526;DHT22;11429;50.842;4.386;2023-10-08T13:26:18;25.00;99.90
22526;DHT22;11429;50.842;4.386;2023-10-08T13:28:48;24.80;99.90
22526;DHT22;11429;50.842;4.386;2023-10-08T13:31:13;24.90;99.90
22526;DHT22;11429;50.842;4.386;2023-10-08T13:33:42;24.80;99.90
22526;DHT22;11429;50.842;4.386;2023-10-08T13:36:11;24.70;99.90
22526;DHT22;11429;50.842;4.386;2023-10-08T13:38:39;24.70;99.90
22526;DHT22;11429;50.842;4.386;2023-10-08T13:41:09;24.70;99.90
22526;DHT22;11429;50.842;4.386;2023-10-08T13:43:50;24.40;99.90
22526;DHT22;11429;50.842;4.386;2023-10-08T13:46:24;24.40;99.90
22526;DHT22;11429;50.842;4.386;2023-10-08T13:48:50;24.60;99.90
22526;DHT22;11429;50.842;4.386;2023-10-08T13:51:18;24.60;99.90
22526;DHT22;11429;50.842;4.386;2023-10-08T13:53:55;24.50;99.90
22526;DHT22;11429;50.842;4.386;2023-10-08T13:56:32;24.50;99.90
22526;DHT22;11429;50.842;4.386;2023-10-08T13:58:59;24.60;99.90
22526;DHT22;11429;50.842;4.386;2023-10-08T14:01:42;24.70;99.90
22526;DHT22;11429;50.842;4.386;2023-10-08T14:04:17;24.30;99.90
22526;DHT22;11429;50.842;4.386;2023-10-08T14:06:45;24.30;99.90
22526;DHT22;11429;50.842;4.386;2023-10-08T14:09:20;24.10;99.90
22526;DHT22;11429;50.842;4.386;2023-10-08T14:11:50;24.30;99.90
22526;DHT22;11429;50.842;4.386;2023-10-08T14:14:18;24.30;99.90
22526;DHT22;11429;50.842;4.386;2023-10-08T14:16:45;24.10;99.90
22526;DHT22;11429;50.842;4.386;2023-10-08T14:19:17;24.00;99.90
22526;DHT22;11429;50.842;4.386;2023-10-08T14:21:43;24.20;99.90
22526;DHT22;11429;50.842;4.386;2023-10-08T14:24:19;24.30;99.90
22526;DHT22;11429;50.842;4.386;2023-10-08T14:26:46;24.50;99.90
22526;DHT22;11429;50.842;4.386;2023-10-08T14:29:20;24.50;99.90
22526;DHT22;11429;50.842;4.386;2023-10-08T14:31:46;24.30;99.90
22526;DHT22;11429;50.842;4.386;2023-10-08T14:34:15;24.50;99.90
22526;DHT22;11429;50.842;4.386;2023-10-08T14:39:28;24.30;99.90
22526;DHT22;11429;50.842;4.386;2023-10-08T14:42:12;24.30;99.90
22526;DHT22;11429;50.842;4.386;2023-10-08T14:44:56;24.60;99.90
22526;DHT22;11429;50.842;4.386;2023-10-08T14:47:22;24.90;99.90
22526;DHT22;11429;50.842;4.386;2023-10-08T14:49:47;24.90;99.90
22526;DHT22;11429;50.842;4.386;2023-10-08T14:54:50;24.50;99.90
22526;DHT22;11429;50.842;4.386;2023-10-08T14:57:17;24.00;99.90
22526;DHT22;11429;50.842;4.386;2023-10-08T14:59:44;24.00;99.90
22526;DHT22;11429;50.842;4.386;2023-10-08T15:02:09;24.00;99.90
22526;DHT22;11429;50.842;4.386;2023-10-08T15:04:38;23.90;99.90
22526;DHT22;11429;50.842;4.386;2023-10-08T15:07:06;23.80;99.90
22526;DHT22;11429;50.842;4.386;2023-10-08T15:09:37;23.70;99.90
22526;DHT22;11429;50.842;4.386;2023-10-08T15:12:03;23.90;99.90
22526;DHT22;11429;50.842;4.386;2023-10-08T15:14:29;24.00;99.90
22526;DHT22;11429;50.842;4.386;2023-10-08T15:16:55;24.00;99.90
22526;DHT22;11429;50.842;4.386;2023-10-08T15:19:22;24.00;99.90
22526;DHT22;11429;50.842;4.386;2023-10-08T15:21:49;23.80;99.90
22526;DHT22;11429;50.842;4.386;2023-10-08T15:24:22;23.60;99.90
22526;DHT22;11429;50.842;4.386;2023-10-08T15:26:49;23.50;99.90
22526;DHT22;11429;50.842;4.386;2023-10-08T15:29:15;23.50;99.90
22526;DHT22;11429;50.842;4.386;2023-10-08T15:31:42;23.50;99.90
22526;DHT22;11429;50.842;4.386;2023-10-08T15:34:10;23.40;99.90
22526;DHT22;11429;50.842;4.386;2023-10-08T15:36:41;23.30;99.90
22526;DHT22;11429;50.842;4.386;2023-10-08T15:39:07;23.40;99.90
22526;DHT22;11429;50.842;4.386;2023-10-08T15:41:37;23.30;99.90
22526;DHT22;11429;50.842;4.386;2023-10-08T15:44:04;23.40;99.90
22526;DHT22;11429;50.842;4.386;2023-10-08T15:46:34;23.50;99.90
22526;DHT22;11429;50.842;4.386;2023-10-08T15:49:01;23.40;99.90
22526;DHT22;11429;50.842;4.386;2023-10-08T15:51:31;23.40;99.90
22526;DHT22;11429;50.842;4.386;2023-10-08T15:53:58;23.70;99.90
22526;DHT22;11429;50.842;4.386;2023-10-08T15:56:25;23.60;99.90
22526;DHT22;11429;50.842;4.386;2023-10-08T15:58:52;23.60;99.90
22526;DHT22;11429;50.842;4.386;2023-10-08T16:01:18;23.50;99.90
22526;DHT22;11429;50.842;4.386;2023-10-08T16:03:44;23.30;99.90
22526;DHT22;11429;50.842;4.386;2023-10-08T16:06:10;23.20;99.90
22526;DHT22;11429;50.842;4.386;2023-10-08T16:08:35;23.10;99.90
22526;DHT22;11429;50.842;4.386;2023-10-08T16:11:01;23.00;99.90
22526;DHT22;11429;50.842;4.386;2023-10-08T16:13:27;23.10;99.90
22526;DHT22;11429;50.842;4.386;2023-10-08T16:15:53;23.30;99.90